sensor_id;sensor_type;location;lat;lon;timestamp;P1;durP1;ratioP1;P2;durP2;ratioP2
14320;SDS011;7244;47.364;8.464;2023-04-01T00:02:01;5;;;0;;
14320;SDS011;7244;47.364;8.464;2023-04-01T00:17:02;2;;;0;;
14320;SDS011;7244;47.364;8.464;2023-04-01T00:32:01;2;;;0;;
14320;SDS011;7244;47.364;8.464;2023-04-01T00:47:02;2;;;0;;
14320;SDS011;7244;47.364;8.464;2023-04-01T01:02:02;0;;;0;;
14320;SDS011;7244;47.364;8.464;2023-04-01T01:17:04;0;;;0;;
14320;SDS011;7244;47.364;8.464;2023-04-01T01:32:03;7;;;0;;
14320;SDS011;7244;47.364;8.464;2023-04-01T01:33:06;7;;;0;;
14320;SDS011;7244;47.364;8.464;2023-04-01T01:34:04;7;;;0;;
14320;SDS011;7244;47.364;8.464;2023-04-01T01:35:07;7;;;0;;
14320;SDS011;7244;47.364;8.464;2023-04-01T01:36:02;7;;;0;;
14320;SDS011;7244;47.364;8.464;2023-04-01T01:37:03;7;;;0;;
14320;SDS011;7244;47.364;8.464;2023-04-01T01:38:02;7;;;0;;
14320;SDS011;7244;47.364;8.464;2023-04-01T01:39:01;7;;;0;;
14320;SDS011;7244;47.364;8.464;2023-04-01T01:40:03;7;;;0;;
14320;SDS011;7244;47.364;8.464;2023-04-01T01:41:02;7;;;0;;
14320;SDS011;7244;47.364;8.464;2023-04-01T01:42:03;5;;;0;;
14320;SDS011;7244;47.364;8.464;2023-04-01T01:43:03;5;;;0;;
14320;SDS011;7244;47.364;8.464;2023-04-01T01:44:02;5;;;0;;
14320;SDS011;7244;47.364;8.464;2023-04-01T01:45:02;5;;;0;;
14320;SDS011;7244;47.364;8.464;2023-04-01T01:46:03;5;;;0;;
14320;SDS011;7244;47.364;8.464;2023-04-01T02:02:02;2;;;0;;
14320;SDS011;7244;47.364;8.464;2023-04-01T02:17:03;7;;;1;;
14320;SDS011;7244;47.364;8.464;2023-04-01T02:32:01;5;;;1;;
14320;SDS011;7244;47.364;8.464;2023-04-01T02:47:02;5;;;1;;
14320;SDS011;7244;47.364;8.464;2023-04-01T03:02:02;5;;;0;;
14320;SDS011;7244;47.364;8.464;2023-04-01T03:17:01;6;;;1;;
14320;SDS011;7244;47.364;8.464;2023-04-01T03:32:02;6;;;1;;
14320;SDS011;7244;47.364;8.464;2023-04-01T03:47:02;6;;;1;;
14320;SDS011;7244;47.364;8.464;2023-04-01T04:02:02;6;;;1;;
14320;SDS011;7244;47.364;8.464;2023-04-01T04:17:01;4;;;0;;
14320;SDS011;7244;47.364;8.464;2023-04-01T04:32:02;8;;;0;;
14320;SDS011;7244;47.364;8.464;2023-04-01T04:47:02;3;;;0;;
14320;SDS011;7244;47.364;8.464;2023-04-01T05:02:02;2;;;0;;
14320;SDS011;7244;47.364;8.464;2023-04-01T05:17:02;1;;;0;;
14320;SDS011;7244;47.364;8.464;2023-04-01T05:32:02;2;;;0;;
14320;SDS011;7244;47.364;8.464;2023-04-01T05:47:03;2;;;0;;
14320;SDS011;7244;47.364;8.464;2023-04-01T06:02:02;2;;;0;;
14320;SDS011;7244;47.364;8.464;2023-04-01T06:17:05;3;;;0;;
14320;SDS011;7244;47.364;8.464;2023-04-01T06:32:09;3;;;0;;
14320;SDS011;7244;47.364;8.464;2023-04-01T06:33:08;3;;;0;;
14320;SDS011;7244;47.364;8.464;2023-04-01T06:34:06;3;;;0;;
14320;SDS011;7244;47.364;8.464;2023-04-01T06:35:08;3;;;0;;
14320;SDS011;7244;47.364;8.464;2023-04-01T06:36:05;3;;;0;;
14320;SDS011;7244;47.364;8.464;2023-04-01T06:37:06;3;;;0;;
14320;SDS011;7244;47.364;8.464;2023-04-01T06:38:20;3;;;0;;
14320;SDS011;7244;47.364;8.464;2023-04-01T06:39:05;3;;;0;;
14320;SDS011;7244;47.364;8.464;2023-04-01T06:40:05;3;;;0;;
14320;SDS011;7244;47.364;8.464;2023-04-01T06:41:05;1;;;0;;
14320;SDS011;7244;47.364;8.464;2023-04-01T06:42:04;1;;;0;;
14320;SDS011;7244;47.364;8.464;2023-04-01T06:43:04;1;;;0;;
14320;SDS011;7244;47.364;8.464;2023-04-01T06:44:06;1;;;0;;
14320;SDS011;7244;47.364;8.464;2023-04-01T06:45:05;1;;;0;;
14320;SDS011;7244;47.364;8.464;2023-04-01T06:46:02;1;;;0;;
14320;SDS011;7244;47.364;8.464;2023-04-01T07:02:04;1;;;0;;
14320;SDS011;7244;47.364;8.464;2023-04-01T07:17:03;1;;;0;;
14320;SDS011;7244;47.364;8.464;2023-04-01T07:32:05;0;;;0;;
14320;SDS011;7244;47.364;8.464;2023-04-01T07:47:06;1;;;0;;
14320;SDS011;7244;47.364;8.464;2023-04-01T08:02:04;1;;;0;;
14320;SDS011;7244;47.364;8.464;2023-04-01T08:17:02;0;;;0;;
14320;SDS011;7244;47.364;8.464;2023-04-01T08:18:04;0;;;0;;
14320;SDS011;7244;47.364;8.464;2023-04-01T08:19:02;0;;;0;;
14320;SDS011;7244;47.364;8.464;2023-04-01T08:20:07;0;;;0;;
14320;SDS011;7244;47.364;8.464;2023-04-01T08:21:02;0;;;0;;
14320;SDS011;7244;47.364;8.464;2023-04-01T08:22:02;0;;;0;;
14320;SDS011;7244;47.364;8.464;2023-04-01T08:23:04;0;;;0;;
14320;SDS011;7244;47.364;8.464;2023-04-01T08:24:05;0;;;0;;
14320;SDS011;7244;47.364;8.464;2023-04-01T08:25:02;0;;;0;;
14320;SDS011;7244;47.364;8.464;2023-04-01T08:26:02;0;;;0;;
14320;SDS011;7244;47.364;8.464;2023-04-01T08:27:03;0;;;0;;
14320;SDS011;7244;47.364;8.464;2023-04-01T08:28:03;0;;;0;;
14320;SDS011;7244;47.364;8.464;2023-04-01T08:29:02;0;;;0;;
14320;SDS011;7244;47.364;8.464;2023-04-01T08:30:02;0;;;0;;
14320;SDS011;7244;47.364;8.464;2023-04-01T08:31:03;3;;;0;;
14320;SDS011;7244;47.364;8.464;2023-04-01T08:47:06;0;;;0;;
14320;SDS011;7244;47.364;8.464;2023-04-01T08:48:07;0;;;0;;
14320;SDS011;7244;47.364;8.464;2023-04-01T08:49:04;0;;;0;;
14320;SDS011;7244;47.364;8.464;2023-04-01T08:50:06;0;;;0;;
14320;SDS011;7244;47.364;8.464;2023-04-01T08:51:06;0;;;0;;
14320;SDS011;7244;47.364;8.464;2023-04-01T08:52:07;0;;;0;;
14320;SDS011;7244;47.364;8.464;2023-04-01T08:53:03;0;;;0;;
14320;SDS011;7244;47.364;8.464;2023-04-01T08:54:05;0;;;0;;
14320;SDS011;7244;47.364;8.464;2023-04-01T08:56:05;0;;;0;;
14320;SDS011;7244;47.364;8.464;2023-04-01T08:56:10;0;;;0;;
14320;SDS011;7244;47.364;8.464;2023-04-01T08:57:03;0;;;0;;
14320;SDS011;7244;47.364;8.464;2023-04-01T08:58:06;0;;;0;;
14320;SDS011;7244;47.364;8.464;2023-04-01T08:59:06;0;;;0;;
14320;SDS011;7244;47.364;8.464;2023-04-01T09:00:07;0;;;0;;
14320;SDS011;7244;47.364;8.464;2023-04-01T09:01:08;0;;;0;;
14320;SDS011;7244;47.364;8.464;2023-04-01T09:02:09;0;;;0;;
14320;SDS011;7244;47.364;8.464;2023-04-01T09:03:10;1;;;1;;
14320;SDS011;7244;47.364;8.464;2023-04-01T09:04:38;1;;;1;;
14320;SDS011;7244;47.364;8.464;2023-04-01T09:05:08;1;;;1;;
14320;SDS011;7244;47.364;8.464;2023-04-01T09:06:09;1;;;1;;
14320;SDS011;7244;47.364;8.464;2023-04-01T09:07:04;1;;;1;;
14320;SDS011;7244;47.364;8.464;2023-04-01T09:08:04;1;;;1;;
14320;SDS011;7244;47.364;8.464;2023-04-01T09:09:07;1;;;1;;
14320;SDS011;7244;47.364;8.464;2023-04-01T09:10:16;1;;;1;;
14320;SDS011;7244;47.364;8.464;2023-04-01T09:11:05;1;;;1;;
14320;SDS011;7244;47.364;8.464;2023-04-01T09:12:07;1;;;1;;
14320;SDS011;7244;47.364;8.464;2023-04-01T09:13:07;1;;;1;;
14320;SDS011;7244;47.364;8.464;2023-04-01T09:14:06;1;;;1;;
14320;SDS011;7244;47.364;8.464;2023-04-01T09:15:07;1;;;1;;
14320;SDS011;7244;47.364;8.464;2023-04-01T09:16:05;1;;;1;;
14320;SDS011;7244;47.364;8.464;2023-04-01T09:32:06;1;;;0;;
14320;SDS011;7244;47.364;8.464;2023-04-01T09:47:06;0;;;0;;
14320;SDS011;7244;47.364;8.464;2023-04-01T09:48:05;0;;;0;;
14320;SDS011;7244;47.364;8.464;2023-04-01T09:49:21;0;;;0;;
14320;SDS011;7244;47.364;8.464;2023-04-01T09:50:21;1;;;0;;
14320;SDS011;7244;47.364;8.464;2023-04-01T09:51:03;1;;;0;;
14320;SDS011;7244;47.364;8.464;2023-04-01T09:52:06;1;;;0;;
14320;SDS011;7244;47.364;8.464;2023-04-01T09:53:07;1;;;0;;
14320;SDS011;7244;47.364;8.464;2023-04-01T09:54:05;1;;;0;;
14320;SDS011;7244;47.364;8.464;2023-04-01T09:55:06;1;;;0;;
14320;SDS011;7244;47.364;8.464;2023-04-01T09:56:08;1;;;0;;
14320;SDS011;7244;47.364;8.464;2023-04-01T09:57:06;1;;;0;;
14320;SDS011;7244;47.364;8.464;2023-04-01T09:58:07;1;;;0;;
14320;SDS011;7244;47.364;8.464;2023-04-01T09:59:15;1;;;0;;
14320;SDS011;7244;47.364;8.464;2023-04-01T10:00:06;1;;;0;;
14320;SDS011;7244;47.364;8.464;2023-04-01T10:01:05;1;;;0;;
14320;SDS011;7244;47.364;8.464;2023-04-01T10:02:29;1;;;0;;
14320;SDS011;7244;47.364;8.464;2023-04-01T10:04:22;1;;;0;;
14320;SDS011;7244;47.364;8.464;2023-04-01T10:05:18;0;;;0;;
14320;SDS011;7244;47.364;8.464;2023-04-01T10:06:13;0;;;0;;
14320;SDS011;7244;47.364;8.464;2023-04-01T10:08:07;0;;;0;;
14320;SDS011;7244;47.364;8.464;2023-04-01T10:09:10;0;;;0;;
14320;SDS011;7244;47.364;8.464;2023-04-01T10:10:07;0;;;0;;
14320;SDS011;7244;47.364;8.464;2023-04-01T10:11:22;0;;;0;;
14320;SDS011;7244;47.364;8.464;2023-04-01T10:12:07;0;;;0;;
14320;SDS011;7244;47.364;8.464;2023-04-01T10:13:06;0;;;0;;
14320;SDS011;7244;47.364;8.464;2023-04-01T10:14:06;0;;;0;;
14320;SDS011;7244;47.364;8.464;2023-04-01T10:15:10;0;;;0;;
14320;SDS011;7244;47.364;8.464;2023-04-01T10:16:05;0;;;0;;
14320;SDS011;7244;47.364;8.464;2023-04-01T10:17:08;0;;;0;;
14320;SDS011;7244;47.364;8.464;2023-04-01T10:18:07;0;;;0;;
14320;SDS011;7244;47.364;8.464;2023-04-01T10:19:06;0;;;0;;
14320;SDS011;7244;47.364;8.464;2023-04-01T10:20:06;0;;;0;;
14320;SDS011;7244;47.364;8.464;2023-04-01T10:21:06;0;;;0;;
14320;SDS011;7244;47.364;8.464;2023-04-01T10:22:04;0;;;0;;
14320;SDS011;7244;47.364;8.464;2023-04-01T10:23:19;0;;;0;;
14320;SDS011;7244;47.364;8.464;2023-04-01T10:24:39;0;;;0;;
14320;SDS011;7244;47.364;8.464;2023-04-01T10:25:05;0;;;0;;
14320;SDS011;7244;47.364;8.464;2023-04-01T10:27:06;0;;;0;;
14320;SDS011;7244;47.364;8.464;2023-04-01T10:28:06;0;;;0;;
14320;SDS011;7244;47.364;8.464;2023-04-01T10:30:05;0;;;0;;
14320;SDS011;7244;47.364;8.464;2023-04-01T10:30:17;0;;;0;;
14320;SDS011;7244;47.364;8.464;2023-04-01T10:31:22;0;;;0;;
14320;SDS011;7244;47.364;8.464;2023-04-01T10:32:10;0;;;0;;
14320;SDS011;7244;47.364;8.464;2023-04-01T10:33:10;0;;;0;;
14320;SDS011;7244;47.364;8.464;2023-04-01T10:34:37;0;;;0;;
14320;SDS011;7244;47.364;8.464;2023-04-01T10:36:23;0;;;0;;
14320;SDS011;7244;47.364;8.464;2023-04-01T10:37:03;3;;;1;;
14320;SDS011;7244;47.364;8.464;2023-04-01T10:38:12;3;;;1;;
14320;SDS011;7244;47.364;8.464;2023-04-01T10:39:07;3;;;1;;
14320;SDS011;7244;47.364;8.464;2023-04-01T10:40:08;3;;;1;;
14320;SDS011;7244;47.364;8.464;2023-04-01T10:41:08;3;;;1;;
14320;SDS011;7244;47.364;8.464;2023-04-01T10:42:11;3;;;1;;
14320;SDS011;7244;47.364;8.464;2023-04-01T10:43:06;3;;;1;;
14320;SDS011;7244;47.364;8.464;2023-04-01T10:44:11;3;;;1;;
14320;SDS011;7244;47.364;8.464;2023-04-01T10:46:38;3;;;1;;
14320;SDS011;7244;47.364;8.464;2023-04-01T10:47:13;3;;;1;;
14320;SDS011;7244;47.364;8.464;2023-04-01T10:48:07;3;;;1;;
14320;SDS011;7244;47.364;8.464;2023-04-01T10:49:10;3;;;1;;
14320;SDS011;7244;47.364;8.464;2023-04-01T10:50:12;3;;;1;;
14320;SDS011;7244;47.364;8.464;2023-04-01T10:51:04;3;;;1;;
14320;SDS011;7244;47.364;8.464;2023-04-01T10:52:07;3;;;1;;
14320;SDS011;7244;47.364;8.464;2023-04-01T10:53:10;0;;;0;;
14320;SDS011;7244;47.364;8.464;2023-04-01T10:54:07;0;;;0;;
14320;SDS011;7244;47.364;8.464;2023-04-01T10:55:15;0;;;0;;
14320;SDS011;7244;47.364;8.464;2023-04-01T10:57:02;0;;;0;;
14320;SDS011;7244;47.364;8.464;2023-04-01T10:57:10;0;;;0;;
14320;SDS011;7244;47.364;8.464;2023-04-01T10:58:09;0;;;0;;
14320;SDS011;7244;47.364;8.464;2023-04-01T10:59:07;0;;;0;;
14320;SDS011;7244;47.364;8.464;2023-04-01T11:00:07;0;;;0;;
14320;SDS011;7244;47.364;8.464;2023-04-01T11:01:05;0;;;0;;
14320;SDS011;7244;47.364;8.464;2023-04-01T11:17:09;1;;;0;;
14320;SDS011;7244;47.364;8.464;2023-04-01T11:18:05;1;;;0;;
14320;SDS011;7244;47.364;8.464;2023-04-01T11:21:10;1;;;0;;
14320;SDS011;7244;47.364;8.464;2023-04-01T11:21:28;1;;;0;;
14320;SDS011;7244;47.364;8.464;2023-04-01T11:22:09;1;;;0;;
14320;SDS011;7244;47.364;8.464;2023-04-01T11:23:06;1;;;0;;
14320;SDS011;7244;47.364;8.464;2023-04-01T11:24:13;0;;;0;;
14320;SDS011;7244;47.364;8.464;2023-04-01T11:25:11;0;;;0;;
14320;SDS011;7244;47.364;8.464;2023-04-01T11:26:04;0;;;0;;
14320;SDS011;7244;47.364;8.464;2023-04-01T11:27:05;0;;;0;;
14320;SDS011;7244;47.364;8.464;2023-04-01T11:28:08;0;;;0;;
14320;SDS011;7244;47.364;8.464;2023-04-01T11:29:04;0;;;0;;
14320;SDS011;7244;47.364;8.464;2023-04-01T11:30:06;0;;;0;;
14320;SDS011;7244;47.364;8.464;2023-04-01T11:31:11;0;;;0;;
14320;SDS011;7244;47.364;8.464;2023-04-01T11:47:22;0;;;0;;
14320;SDS011;7244;47.364;8.464;2023-04-01T12:02:03;0;;;0;;
14320;SDS011;7244;47.364;8.464;2023-04-01T12:17:03;1;;;0;;
14320;SDS011;7244;47.364;8.464;2023-04-01T12:32:02;1;;;0;;
14320;SDS011;7244;47.364;8.464;2023-04-01T12:47:39;0;;;0;;
14320;SDS011;7244;47.364;8.464;2023-04-01T13:02:07;0;;;0;;
14320;SDS011;7244;47.364;8.464;2023-04-01T13:03:05;0;;;0;;
14320;SDS011;7244;47.364;8.464;2023-04-01T13:04:06;0;;;0;;
14320;SDS011;7244;47.364;8.464;2023-04-01T13:05:37;0;;;0;;
14320;SDS011;7244;47.364;8.464;2023-04-01T13:06:20;0;;;0;;
14320;SDS011;7244;47.364;8.464;2023-04-01T13:07:08;0;;;0;;
14320;SDS011;7244;47.364;8.464;2023-04-01T13:08:12;0;;;0;;
14320;SDS011;7244;47.364;8.464;2023-04-01T13:09:05;0;;;0;;
14320;SDS011;7244;47.364;8.464;2023-04-01T13:10:04;0;;;0;;
14320;SDS011;7244;47.364;8.464;2023-04-01T13:11:07;0;;;0;;
14320;SDS011;7244;47.364;8.464;2023-04-01T13:12:06;0;;;0;;
14320;SDS011;7244;47.364;8.464;2023-04-01T13:13:14;0;;;0;;
14320;SDS011;7244;47.364;8.464;2023-04-01T13:14:09;0;;;0;;
14320;SDS011;7244;47.364;8.464;2023-04-01T13:15:07;0;;;0;;
14320;SDS011;7244;47.364;8.464;2023-04-01T13:16:03;0;;;0;;
14320;SDS011;7244;47.364;8.464;2023-04-01T13:32:05;1;;;0;;
14320;SDS011;7244;47.364;8.464;2023-04-01T13:47:08;0;;;0;;
14320;SDS011;7244;47.364;8.464;2023-04-01T14:02:05;1;;;0;;
14320;SDS011;7244;47.364;8.464;2023-04-01T14:04:38;1;;;0;;
14320;SDS011;7244;47.364;8.464;2023-04-01T14:05:07;1;;;0;;
14320;SDS011;7244;47.364;8.464;2023-04-01T14:06:03;1;;;0;;
14320;SDS011;7244;47.364;8.464;2023-04-01T14:07:06;1;;;0;;
14320;SDS011;7244;47.364;8.464;2023-04-01T14:08:04;1;;;0;;
14320;SDS011;7244;47.364;8.464;2023-04-01T14:09:07;1;;;0;;
14320;SDS011;7244;47.364;8.464;2023-04-01T14:10:05;1;;;0;;
14320;SDS011;7244;47.364;8.464;2023-04-01T14:11:05;1;;;0;;
14320;SDS011;7244;47.364;8.464;2023-04-01T14:12:04;1;;;0;;
14320;SDS011;7244;47.364;8.464;2023-04-01T14:13:03;1;;;0;;
14320;SDS011;7244;47.364;8.464;2023-04-01T14:14:03;1;;;0;;
14320;SDS011;7244;47.364;8.464;2023-04-01T14:15:07;1;;;0;;
14320;SDS011;7244;47.364;8.464;2023-04-01T14:16:10;1;;;0;;
14320;SDS011;7244;47.364;8.464;2023-04-01T14:17:06;0;;;0;;
14320;SDS011;7244;47.364;8.464;2023-04-01T14:18:06;0;;;0;;
14320;SDS011;7244;47.364;8.464;2023-04-01T14:19:07;0;;;0;;
14320;SDS011;7244;47.364;8.464;2023-04-01T14:20:06;0;;;0;;
14320;SDS011;7244;47.364;8.464;2023-04-01T14:21:06;0;;;0;;
14320;SDS011;7244;47.364;8.464;2023-04-01T14:22:04;0;;;0;;
14320;SDS011;7244;47.364;8.464;2023-04-01T14:23:11;0;;;0;;
14320;SDS011;7244;47.364;8.464;2023-04-01T14:24:08;0;;;0;;
14320;SDS011;7244;47.364;8.464;2023-04-01T14:25:07;0;;;0;;
14320;SDS011;7244;47.364;8.464;2023-04-01T14:26:03;0;;;0;;
14320;SDS011;7244;47.364;8.464;2023-04-01T14:27:12;0;;;0;;
14320;SDS011;7244;47.364;8.464;2023-04-01T14:28:03;0;;;0;;
14320;SDS011;7244;47.364;8.464;2023-04-01T14:29:02;0;;;0;;
14320;SDS011;7244;47.364;8.464;2023-04-01T14:30:07;0;;;0;;
14320;SDS011;7244;47.364;8.464;2023-04-01T14:31:11;0;;;0;;
14320;SDS011;7244;47.364;8.464;2023-04-01T14:32:05;0;;;0;;
14320;SDS011;7244;47.364;8.464;2023-04-01T14:33:04;1;;;0;;
14320;SDS011;7244;47.364;8.464;2023-04-01T14:34:05;1;;;0;;
14320;SDS011;7244;47.364;8.464;2023-04-01T14:35:11;1;;;0;;
14320;SDS011;7244;47.364;8.464;2023-04-01T14:36:18;1;;;0;;
14320;SDS011;7244;47.364;8.464;2023-04-01T14:37:05;1;;;0;;
14320;SDS011;7244;47.364;8.464;2023-04-01T14:38:04;1;;;0;;
14320;SDS011;7244;47.364;8.464;2023-04-01T14:39:07;1;;;0;;
14320;SDS011;7244;47.364;8.464;2023-04-01T14:40:05;1;;;0;;
14320;SDS011;7244;47.364;8.464;2023-04-01T14:41:06;1;;;0;;
14320;SDS011;7244;47.364;8.464;2023-04-01T14:42:08;1;;;0;;
14320;SDS011;7244;47.364;8.464;2023-04-01T14:43:40;1;;;0;;
14320;SDS011;7244;47.364;8.464;2023-04-01T14:44:05;1;;;0;;
14320;SDS011;7244;47.364;8.464;2023-04-01T14:45:06;1;;;0;;
14320;SDS011;7244;47.364;8.464;2023-04-01T14:46:08;1;;;0;;
14320;SDS011;7244;47.364;8.464;2023-04-01T15:02:03;0;;;0;;
14320;SDS011;7244;47.364;8.464;2023-04-01T15:03:02;0;;;0;;
14320;SDS011;7244;47.364;8.464;2023-04-01T15:04:05;0;;;0;;
14320;SDS011;7244;47.364;8.464;2023-04-01T15:05:05;0;;;0;;
14320;SDS011;7244;47.364;8.464;2023-04-01T15:06:20;0;;;0;;
14320;SDS011;7244;47.364;8.464;2023-04-01T15:07:06;0;;;0;;
14320;SDS011;7244;47.364;8.464;2023-04-01T15:08:12;0;;;0;;
14320;SDS011;7244;47.364;8.464;2023-04-01T15:09:02;0;;;0;;
14320;SDS011;7244;47.364;8.464;2023-04-01T15:10:02;0;;;0;;
14320;SDS011;7244;47.364;8.464;2023-04-01T15:11:36;0;;;0;;
14320;SDS011;7244;47.364;8.464;2023-04-01T15:12:04;0;;;0;;
14320;SDS011;7244;47.364;8.464;2023-04-01T15:13:05;0;;;0;;
14320;SDS011;7244;47.364;8.464;2023-04-01T15:14:05;0;;;0;;
14320;SDS011;7244;47.364;8.464;2023-04-01T15:15:11;0;;;0;;
14320;SDS011;7244;47.364;8.464;2023-04-01T15:16:05;0;;;0;;
14320;SDS011;7244;47.364;8.464;2023-04-01T15:32:02;1;;;0;;
14320;SDS011;7244;47.364;8.464;2023-04-01T15:47:02;1;;;0;;
14320;SDS011;7244;47.364;8.464;2023-04-01T16:02:07;1;;;0;;
14320;SDS011;7244;47.364;8.464;2023-04-01T16:17:05;1;;;0;;
14320;SDS011;7244;47.364;8.464;2023-04-01T16:32:07;0;;;0;;
14320;SDS011;7244;47.364;8.464;2023-04-01T16:47:05;0;;;0;;
14320;SDS011;7244;47.364;8.464;2023-04-01T17:02:02;0;;;0;;
14320;SDS011;7244;47.364;8.464;2023-04-01T17:17:07;0;;;0;;
14320;SDS011;7244;47.364;8.464;2023-04-01T17:32:03;0;;;0;;
14320;SDS011;7244;47.364;8.464;2023-04-01T17:47:07;0;;;0;;
14320;SDS011;7244;47.364;8.464;2023-04-01T18:02:04;0;;;0;;
14320;SDS011;7244;47.364;8.464;2023-04-01T18:17:05;0;;;0;;
14320;SDS011;7244;47.364;8.464;2023-04-01T19:01:06;1;;;0;;
14320;SDS011;7244;47.364;8.464;2023-04-01T19:17:03;0;;;0;;
14320;SDS011;7244;47.364;8.464;2023-04-01T19:18:06;0;;;0;;
14320;SDS011;7244;47.364;8.464;2023-04-01T19:19:05;0;;;0;;
14320;SDS011;7244;47.364;8.464;2023-04-01T19:20:03;0;;;0;;
14320;SDS011;7244;47.364;8.464;2023-04-01T19:21:04;0;;;0;;
14320;SDS011;7244;47.364;8.464;2023-04-01T19:22:03;0;;;0;;
14320;SDS011;7244;47.364;8.464;2023-04-01T19:23:11;0;;;0;;
14320;SDS011;7244;47.364;8.464;2023-04-01T19:24:07;0;;;0;;
14320;SDS011;7244;47.364;8.464;2023-04-01T19:25:07;0;;;0;;
14320;SDS011;7244;47.364;8.464;2023-04-01T19:26:02;0;;;0;;
14320;SDS011;7244;47.364;8.464;2023-04-01T19:27:03;0;;;0;;
14320;SDS011;7244;47.364;8.464;2023-04-01T19:28:02;0;;;0;;
14320;SDS011;7244;47.364;8.464;2023-04-01T19:29:03;0;;;0;;
14320;SDS011;7244;47.364;8.464;2023-04-01T19:30:10;0;;;0;;
14320;SDS011;7244;47.364;8.464;2023-04-01T19:31:03;0;;;0;;
14320;SDS011;7244;47.364;8.464;2023-04-01T19:32:05;2;;;0;;
14320;SDS011;7244;47.364;8.464;2023-04-01T19:33:05;2;;;0;;
14320;SDS011;7244;47.364;8.464;2023-04-01T19:34:05;2;;;0;;
14320;SDS011;7244;47.364;8.464;2023-04-01T19:35:07;2;;;0;;
14320;SDS011;7244;47.364;8.464;2023-04-01T19:36:03;2;;;0;;
14320;SDS011;7244;47.364;8.464;2023-04-01T19:37:02;2;;;0;;
14320;SDS011;7244;47.364;8.464;2023-04-01T19:38:03;2;;;0;;
14320;SDS011;7244;47.364;8.464;2023-04-01T19:39:05;2;;;0;;
14320;SDS011;7244;47.364;8.464;2023-04-01T19:40:06;2;;;0;;
14320;SDS011;7244;47.364;8.464;2023-04-01T19:41:03;2;;;0;;
14320;SDS011;7244;47.364;8.464;2023-04-01T19:42:03;2;;;0;;
14320;SDS011;7244;47.364;8.464;2023-04-01T19:43:02;2;;;0;;
14320;SDS011;7244;47.364;8.464;2023-04-01T19:44:04;2;;;0;;
14320;SDS011;7244;47.364;8.464;2023-04-01T19:45:04;2;;;0;;
14320;SDS011;7244;47.364;8.464;2023-04-01T19:46:03;2;;;0;;
14320;SDS011;7244;47.364;8.464;2023-04-01T20:02:04;0;;;0;;
14320;SDS011;7244;47.364;8.464;2023-04-01T20:17:06;0;;;0;;
14320;SDS011;7244;47.364;8.464;2023-04-01T20:32:05;0;;;0;;
14320;SDS011;7244;47.364;8.464;2023-04-01T20:47:03;2;;;0;;
14320;SDS011;7244;47.364;8.464;2023-04-01T20:48:06;2;;;0;;
14320;SDS011;7244;47.364;8.464;2023-04-01T20:49:33;2;;;0;;
14320;SDS011;7244;47.364;8.464;2023-04-01T20:50:02;2;;;0;;
14320;SDS011;7244;47.364;8.464;2023-04-01T20:51:03;0;;;0;;
14320;SDS011;7244;47.364;8.464;2023-04-01T20:52:05;0;;;0;;
14320;SDS011;7244;47.364;8.464;2023-04-01T20:53:04;0;;;0;;
14320;SDS011;7244;47.364;8.464;2023-04-01T20:54:05;0;;;0;;
14320;SDS011;7244;47.364;8.464;2023-04-01T20:55:06;0;;;0;;
14320;SDS011;7244;47.364;8.464;2023-04-01T20:56:35;0;;;0;;
14320;SDS011;7244;47.364;8.464;2023-04-01T20:57:04;0;;;0;;
14320;SDS011;7244;47.364;8.464;2023-04-01T20:58:06;0;;;0;;
14320;SDS011;7244;47.364;8.464;2023-04-01T20:59:05;0;;;0;;
14320;SDS011;7244;47.364;8.464;2023-04-01T21:00:03;0;;;0;;
14320;SDS011;7244;47.364;8.464;2023-04-01T21:01:04;0;;;0;;
14320;SDS011;7244;47.364;8.464;2023-04-01T21:17:04;0;;;0;;
14320;SDS011;7244;47.364;8.464;2023-04-01T21:32:06;0;;;0;;
14320;SDS011;7244;47.364;8.464;2023-04-01T21:47:08;1;;;0;;
14320;SDS011;7244;47.364;8.464;2023-04-01T22:02:07;2;;;1;;
14320;SDS011;7244;47.364;8.464;2023-04-01T22:03:11;2;;;1;;
14320;SDS011;7244;47.364;8.464;2023-04-01T22:04:08;2;;;1;;
14320;SDS011;7244;47.364;8.464;2023-04-01T22:05:02;2;;;1;;
14320;SDS011;7244;47.364;8.464;2023-04-01T22:06:04;2;;;1;;
14320;SDS011;7244;47.364;8.464;2023-04-01T22:07:02;2;;;1;;
14320;SDS011;7244;47.364;8.464;2023-04-01T22:08:04;2;;;1;;
14320;SDS011;7244;47.364;8.464;2023-04-01T22:09:07;2;;;1;;
14320;SDS011;7244;47.364;8.464;2023-04-01T22:10:03;2;;;1;;
14320;SDS011;7244;47.364;8.464;2023-04-01T22:11:04;2;;;1;;
14320;SDS011;7244;47.364;8.464;2023-04-01T22:12:03;2;;;1;;
14320;SDS011;7244;47.364;8.464;2023-04-01T22:13:03;2;;;1;;
14320;SDS011;7244;47.364;8.464;2023-04-01T22:14:02;2;;;1;;
14320;SDS011;7244;47.364;8.464;2023-04-01T22:15:03;2;;;1;;
14320;SDS011;7244;47.364;8.464;2023-04-01T22:16:04;2;;;1;;
14320;SDS011;7244;47.364;8.464;2023-04-01T22:32:03;0;;;0;;
14320;SDS011;7244;47.364;8.464;2023-04-01T22:33:03;0;;;0;;
14320;SDS011;7244;47.364;8.464;2023-04-01T22:34:03;0;;;0;;
14320;SDS011;7244;47.364;8.464;2023-04-01T22:35:03;0;;;0;;
14320;SDS011;7244;47.364;8.464;2023-04-01T22:36:03;0;;;0;;
14320;SDS011;7244;47.364;8.464;2023-04-01T22:37:02;0;;;0;;
14320;SDS011;7244;47.364;8.464;2023-04-01T22:38:04;0;;;0;;
14320;SDS011;7244;47.364;8.464;2023-04-01T22:39:04;0;;;0;;
14320;SDS011;7244;47.364;8.464;2023-04-01T22:40:08;0;;;0;;
14320;SDS011;7244;47.364;8.464;2023-04-01T22:41:02;0;;;0;;
14320;SDS011;7244;47.364;8.464;2023-04-01T22:42:05;0;;;0;;
14320;SDS011;7244;47.364;8.464;2023-04-01T22:43:03;0;;;0;;
14320;SDS011;7244;47.364;8.464;2023-04-01T22:44:02;0;;;0;;
14320;SDS011;7244;47.364;8.464;2023-04-01T22:45:05;0;;;0;;
14320;SDS011;7244;47.364;8.464;2023-04-01T22:46:05;0;;;0;;
14320;SDS011;7244;47.364;8.464;2023-04-01T23:02:03;0;;;0;;
14320;SDS011;7244;47.364;8.464;2023-04-01T23:17:02;1;;;0;;
14320;SDS011;7244;47.364;8.464;2023-04-01T23:32:02;1;;;0;;
14320;SDS011;7244;47.364;8.464;2023-04-01T23:47:02;0;;;0;;
